Time;durP1;ratioP1;P1;durP2;ratioP2;P2;SDS_P1;SDS_P2;PMS_P1;PMS_P2;Temp;Humidity;BMP_temperature;BMP_pressure;BME280_temperature;BME280_humidity;BME280_pressure;Samples;Min_cycle;Max_cycle;Signal;HPM_P1;HPM_P2
2022/04/16 00:00:35;;;;;;;17.45;9.68;;;12.20;92.40;;;;;;5111068;28;20054;-67
2022/04/16 00:03:03;;;;;;;20.35;10.27;;;12.20;92.50;;;;;;5111231;28;20529;-66
2022/04/16 00:05:29;;;;;;;17.88;9.38;;;12.10;92.70;;;;;;5110491;28;20023;-66
2022/04/16 00:08:06;;;;;;;15.45;9.82;;;12.10;92.40;;;;;;5097902;28;20028;-67
2022/04/16 00:10:39;;;;;;;17.58;9.75;;;12.10;92.40;;;;;;5111445;28;20031;-67
2022/04/16 00:13:05;;;;;;;21.77;10.10;;;12.10;92.30;;;;;;5111728;28;20118;-66
2022/04/16 00:15:33;;;;;;;17.45;9.65;;;12.10;92.30;;;;;;5115324;28;20032;-66
2022/04/16 00:17:59;;;;;;;19.70;10.43;;;12.00;92.20;;;;;;5108468;28;20093;-67
2022/04/16 00:20:29;;;;;;;18.30;9.05;;;12.00;92.30;;;;;;5108418;28;20028;-66
2022/04/16 00:22:56;;;;;;;16.50;10.32;;;12.00;92.30;;;;;;5115368;28;20039;-66
2022/04/16 00:25:22;;;;;;;18.55;9.90;;;12.00;92.30;;;;;;5114744;28;20020;-67
2022/04/16 00:27:48;;;;;;;20.65;10.20;;;11.90;92.30;;;;;;5114808;28;20470;-66
2022/04/16 00:30:15;;;;;;;17.20;10.27;;;11.90;92.30;;;;;;5109433;28;20451;-67
2022/04/16 00:32:40;;;;;;;18.63;9.68;;;11.90;92.40;;;;;;5094315;28;20064;-67
2022/04/16 00:35:09;;;;;;;23.73;10.02;;;11.90;92.40;;;;;;5095333;28;20032;-67
2022/04/16 00:37:38;;;;;;;16.13;9.00;;;11.90;92.50;;;;;;5113613;28;20126;-67
2022/04/16 00:40:04;;;;;;;15.32;9.48;;;11.90;92.50;;;;;;5100336;28;20036;-67
2022/04/16 00:42:42;;;;;;;16.00;9.85;;;11.90;92.60;;;;;;5102225;28;20390;-67
2022/04/16 00:45:08;;;;;;;17.92;10.18;;;11.80;92.70;;;;;;5114058;28;20460;-67
2022/04/16 00:47:37;;;;;;;17.73;9.63;;;11.80;92.80;;;;;;5109092;28;20036;-67
2022/04/16 00:50:08;;;;;;;18.88;10.75;;;11.80;92.90;;;;;;5111441;28;20027;-67
2022/04/16 00:52:35;;;;;;;16.25;9.57;;;11.80;93.00;;;;;;5114596;28;20035;-67
2022/04/16 00:55:01;;;;;;;19.30;11.27;;;11.80;93.10;;;;;;5114204;28;20055;-67
2022/04/16 00:57:27;;;;;;;20.05;9.75;;;11.80;93.20;;;;;;5114532;28;20485;-67
2022/04/16 00:59:54;;;;;;;17.08;9.90;;;11.80;93.30;;;;;;5114821;28;20420;-67
2022/04/16 01:02:20;;;;;;;19.17;10.13;;;11.80;93.40;;;;;;5101039;28;20026;-67
2022/04/16 01:04:47;;;;;;;19.55;11.55;;;11.80;93.50;;;;;;5108606;28;20608;-67
2022/04/16 01:07:12;;;;;;;20.90;10.73;;;11.90;93.50;;;;;;5114105;28;20071;-67
2022/04/16 01:09:38;;;;;;;18.88;9.65;;;11.90;93.90;;;;;;5114620;28;20055;-67
2022/04/16 01:12:05;;;;;;;19.48;10.73;;;11.90;93.60;;;;;;5114076;28;20035;-67
2022/04/16 01:14:32;;;;;;;18.13;10.35;;;11.80;93.60;;;;;;5111354;28;20417;-68
2022/04/16 01:16:58;;;;;;;18.23;10.90;;;11.90;93.70;;;;;;5108334;28;20081;-67
2022/04/16 01:19:24;;;;;;;19.17;11.05;;;11.90;93.70;;;;;;5116379;27;20027;-67
2022/04/16 01:21:51;;;;;;;18.80;9.93;;;11.90;93.70;;;;;;5100529;28;20047;-67
2022/04/16 01:24:17;;;;;;;18.02;10.55;;;11.90;93.70;;;;;;5096483;28;20027;-67
2022/04/16 01:26:43;;;;;;;18.02;11.23;;;11.90;93.60;;;;;;5095680;28;20118;-67
2022/04/16 01:29:09;;;;;;;16.88;10.23;;;11.90;93.60;;;;;;5097881;28;20107;-67
2022/04/16 01:31:35;;;;;;;16.77;10.13;;;11.90;93.60;;;;;;5099599;28;20035;-66
2022/04/16 01:34:01;;;;;;;19.75;10.68;;;11.90;93.50;;;;;;5097090;28;20028;-67
2022/04/16 01:36:31;;;;;;;23.77;11.10;;;11.90;93.50;;;;;;5097485;28;20024;-66
2022/04/16 01:38:57;;;;;;;31.30;12.68;;;11.90;93.50;;;;;;5097976;28;20042;-67
2022/04/16 01:41:28;;;;;;;23.40;12.45;;;11.90;93.60;;;;;;5097837;28;20475;-66
2022/04/16 01:43:54;;;;;;;24.98;12.00;;;11.90;93.70;;;;;;5097796;28;20024;-67
2022/04/16 01:46:21;;;;;;;19.73;12.27;;;11.80;93.70;;;;;;5100796;28;20103;-67
2022/04/16 01:48:49;;;;;;;28.17;13.57;;;11.80;93.80;;;;;;5097933;28;20036;-66
2022/04/16 01:51:17;;;;;;;21.40;11.55;;;11.80;93.80;;;;;;5094126;28;20032;-67
2022/04/16 01:53:44;;;;;;;25.98;12.25;;;11.80;93.90;;;;;;5097783;28;20067;-67
2022/04/16 01:56:10;;;;;;;23.95;13.15;;;11.80;94.00;;;;;;5099861;28;20024;-66
2022/04/16 01:58:38;;;;;;;23.80;11.20;;;11.80;94.00;;;;;;5098102;28;20044;-67
2022/04/16 02:01:08;;;;;;;28.67;14.02;;;11.80;94.00;;;;;;5101890;28;20465;-67
2022/04/16 02:03:37;;;;;;;23.15;13.02;;;11.80;94.40;;;;;;5097963;28;20089;-67
2022/04/16 02:06:06;;;;;;;26.42;12.57;;;11.80;94.10;;;;;;5098994;28;20489;-67
2022/04/16 02:08:31;;;;;;;28.38;13.93;;;11.80;94.20;;;;;;5097538;28;20731;-67
2022/04/16 02:10:57;;;;;;;27.92;13.43;;;11.80;94.30;;;;;;5097039;28;20031;-67
2022/04/16 02:13:23;;;;;;;25.80;13.73;;;11.80;94.20;;;;;;5097406;28;20035;-67
2022/04/16 02:15:49;;;;;;;25.23;10.07;;;11.80;94.30;;;;;;5105504;28;20024;-67
2022/04/16 02:18:15;;;;;;;31.63;15.20;;;11.80;94.30;;;;;;5099455;28;20063;-67
2022/04/16 02:20:44;;;;;;;26.13;14.25;;;11.80;94.40;;;;;;5099170;28;20024;-66
2022/04/16 02:23:10;;;;;;;25.58;14.63;;;11.90;94.60;;;;;;5102909;28;20502;-67
2022/04/16 02:25:36;;;;;;;26.65;14.30;;;11.90;94.50;;;;;;5108241;28;20023;-67
2022/04/16 02:28:01;;;;;;;26.35;13.02;;;11.90;94.50;;;;;;5113484;28;20406;-68
2022/04/16 02:30:30;;;;;;;27.10;12.90;;;11.90;94.50;;;;;;5112781;28;20527;-66
2022/04/16 02:32:56;;;;;;;16.13;7.78;;;11.90;94.50;;;;;;5095399;28;20518;-66
2022/04/16 02:35:23;;;;;;;19.75;11.23;;;11.90;94.50;;;;;;5103500;28;20067;-67
2022/04/16 02:37:49;;;;;;;16.88;10.90;;;11.90;94.40;;;;;;5093362;28;20058;-67
2022/04/16 02:40:15;;;;;;;21.13;11.48;;;11.90;94.40;;;;;;5095631;28;20024;-66
2022/04/16 02:42:43;;;;;;;22.23;12.25;;;11.90;94.40;;;;;;5101521;28;20032;-67
2022/04/16 02:47:56;;;;;;;24.60;12.00;;;11.90;94.30;;;;;;5110829;28;20078;-66
2022/04/16 02:50:27;;;;;;;15.60;8.23;;;11.90;94.30;;;;;;5092476;28;20036;-66
2022/04/16 02:52:53;;;;;;;27.80;14.05;;;11.90;94.20;;;;;;5106616;28;20486;-66
2022/04/16 02:55:19;;;;;;;26.23;13.15;;;11.90;94.20;;;;;;5112633;28;20034;-66
2022/04/16 02:57:45;;;;;;;21.40;10.70;;;11.90;94.10;;;;;;5111963;28;20035;-66
2022/04/16 03:00:13;;;;;;;28.80;13.13;;;11.90;94.10;;;;;;5111686;28;20043;-66
2022/04/16 03:02:39;;;;;;;15.48;7.00;;;11.90;94.00;;;;;;5094949;28;20063;-66
2022/04/16 03:05:09;;;;;;;23.60;12.07;;;11.90;94.00;;;;;;5102863;28;20421;-66
2022/04/16 03:07:38;;;;;;;24.50;12.40;;;11.90;93.90;;;;;;5111644;28;20023;-66
2022/04/16 03:10:05;;;;;;;19.52;10.52;;;11.90;93.90;;;;;;5112281;28;20023;-66
2022/04/16 03:12:52;;;;;;;24.67;12.27;;;11.90;93.90;;;;;;5106292;28;20051;-66
2022/04/16 03:18:04;;;;;;;21.63;10.93;;;11.90;93.80;;;;;;5092009;28;20048;-66
2022/04/16 03:20:30;;;;;;;17.85;9.40;;;11.90;93.70;;;;;;5109831;28;20032;-66
2022/04/16 03:22:59;;;;;;;22.50;12.40;;;11.90;93.70;;;;;;5111599;28;20038;-66
2022/04/16 03:25:29;;;;;;;17.73;9.63;;;11.80;93.60;;;;;;5099337;28;20475;-67
2022/04/16 03:27:55;;;;;;;18.95;10.05;;;11.90;93.60;;;;;;5097749;28;20040;-67
2022/04/16 03:30:23;;;;;;;24.55;11.32;;;11.80;93.60;;;;;;5091642;28;20027;-67
2022/04/16 03:32:49;;;;;;;26.40;10.45;;;11.80;93.60;;;;;;5105129;28;20028;-67
2022/04/16 03:35:18;;;;;;;29.13;14.90;;;11.90;93.70;;;;;;5098530;28;20074;-67
2022/04/16 03:37:44;;;;;;;29.15;14.65;;;11.80;93.70;;;;;;5111699;28;20047;-67
2022/04/16 03:40:10;;;;;;;32.75;17.13;;;11.80;93.70;;;;;;5098089;28;20103;-67
2022/04/16 03:42:47;;;;;;;25.60;13.23;;;11.80;93.70;;;;;;5100907;28;20036;-67
2022/04/16 03:45:20;;;;;;;28.00;15.25;;;11.80;93.70;;;;;;5110289;28;20023;-67
2022/04/16 03:47:48;;;;;;;28.85;14.43;;;11.70;93.70;;;;;;5111307;28;20042;-68
2022/04/16 03:50:14;;;;;;;28.55;12.82;;;11.70;93.70;;;;;;5097854;28;20039;-67
2022/04/16 03:52:44;;;;;;;33.20;16.70;;;11.70;93.70;;;;;;5111304;28;20443;-67
2022/04/16 04:00:45;;;;;;;26.08;13.75;;;11.70;93.60;;;;;;5110275;28;20126;-67
2022/04/16 04:03:11;;;;;;;23.77;11.05;;;11.70;93.60;;;;;;5090770;28;20040;-67
2022/04/16 04:05:38;;;;;;;23.73;12.40;;;11.70;93.60;;;;;;5105633;28;20807;-67
2022/04/16 04:08:06;;;;;;;22.48;10.60;;;11.70;93.80;;;;;;5111829;28;20084;-68
2022/04/16 04:10:32;;;;;;;15.25;7.35;;;11.70;93.80;;;;;;5109742;28;20038;-67
2022/04/16 04:12:57;;;;;;;23.75;12.40;;;11.70;93.90;;;;;;5111934;28;20114;-67
2022/04/16 04:15:27;;;;;;;27.40;12.75;;;11.70;94.10;;;;;;5097497;28;20027;-67
2022/04/16 04:17:53;;;;;;;25.63;12.40;;;11.60;94.00;;;;;;5109812;28;20486;-67
2022/04/16 04:20:19;;;;;;;24.50;9.07;;;11.70;94.10;;;;;;5111116;28;20027;-67
2022/04/16 04:22:45;;;;;;;24.85;13.82;;;11.60;94.10;;;;;;5111408;28;20060;-67
2022/04/16 04:25:11;;;;;;;29.75;15.48;;;11.60;94.00;;;;;;5105544;28;20047;-67
2022/04/16 04:27:37;;;;;;;18.20;7.93;;;11.60;94.00;;;;;;5102580;28;20032;-67
2022/04/16 04:30:04;;;;;;;25.88;13.48;;;11.60;94.00;;;;;;5111108;28;20509;-67
2022/04/16 04:32:29;;;;;;;24.73;12.55;;;11.60;93.90;;;;;;5098465;28;20090;-67
2022/04/16 04:34:55;;;;;;;18.15;8.63;;;11.60;93.90;;;;;;5109732;28;20055;-67
2022/04/16 04:37:21;;;;;;;23.95;11.80;;;11.60;93.90;;;;;;5111114;28;20050;-67
2022/04/16 04:39:47;;;;;;;29.15;14.73;;;11.60;93.80;;;;;;5096549;28;20142;-67
2022/04/16 04:42:12;;;;;;;28.58;14.80;;;11.60;93.70;;;;;;5111221;28;20028;-67
2022/04/16 04:44:38;;;;;;;25.70;13.02;;;11.60;93.70;;;;;;5110999;28;20046;-67
2022/04/16 04:47:04;;;;;;;27.70;12.90;;;11.60;93.60;;;;;;5110673;28;20468;-67
2022/04/16 04:49:29;;;;;;;22.13;10.70;;;11.60;93.50;;;;;;5111041;28;20051;-67
2022/04/16 04:51:55;;;;;;;20.63;11.18;;;11.60;93.50;;;;;;5103489;28;20039;-67
2022/04/16 04:54:21;;;;;;;19.73;12.55;;;11.60;93.50;;;;;;5091474;28;20463;-67
2022/04/16 04:56:47;;;;;;;23.75;11.88;;;11.60;93.50;;;;;;5110717;28;20043;-67
2022/04/16 04:59:13;;;;;;;24.83;11.23;;;11.60;93.60;;;;;;5096860;28;20032;-67
2022/04/16 05:01:39;;;;;;;25.92;13.07;;;11.60;93.50;;;;;;5114458;28;20027;-67
2022/04/16 05:04:04;;;;;;;27.23;13.18;;;11.60;93.50;;;;;;5114812;28;20041;-67
2022/04/16 05:06:30;;;;;;;22.77;11.55;;;11.60;93.50;;;;;;5104592;28;20391;-67
2022/04/16 05:08:56;;;;;;;26.50;10.70;;;11.60;93.40;;;;;;5110454;28;20754;-67
2022/04/16 05:11:22;;;;;;;25.83;11.88;;;11.60;93.40;;;;;;5113878;28;20031;-67
2022/04/16 05:13:50;;;;;;;23.95;10.93;;;11.60;93.40;;;;;;5113456;28;20040;-67
2022/04/16 05:16:16;;;;;;;21.63;9.82;;;11.60;93.60;;;;;;5114812;28;20046;-67
2022/04/16 05:18:41;;;;;;;25.02;12.05;;;11.60;93.30;;;;;;5100802;28;20475;-67
2022/04/16 05:21:07;;;;;;;20.95;9.90;;;11.60;93.20;;;;;;5114180;28;20038;-67
2022/04/16 05:23:33;;;;;;;20.70;10.60;;;11.60;93.20;;;;;;5110349;28;20059;-67
2022/04/16 05:25:58;;;;;;;22.83;11.75;;;11.60;93.20;;;;;;5094211;28;20032;-67
2022/04/16 05:28:24;;;;;;;20.58;10.00;;;11.60;93.10;;;;;;5106693;28;20032;-67
2022/04/16 05:30:54;;;;;;;21.95;11.48;;;11.60;93.10;;;;;;5094193;28;20027;-67
2022/04/16 05:36:05;;;;;;;19.80;11.57;;;11.60;93.20;;;;;;5106546;28;20398;-67
2022/04/16 05:38:32;;;;;;;19.55;10.23;;;11.60;93.10;;;;;;5097666;28;20042;-67
2022/04/16 05:40:58;;;;;;;16.35;8.13;;;11.60;93.20;;;;;;5103618;28;20027;-67
2022/04/16 05:43:24;;;;;;;19.45;9.00;;;11.50;93.30;;;;;;5099689;27;20686;-67
2022/04/16 05:45:50;;;;;;;13.48;6.00;;;11.60;93.50;;;;;;5103510;28;20024;-68
2022/04/16 05:48:15;;;;;;;16.58;8.10;;;11.60;93.60;;;;;;5111229;28;20374;-67
2022/04/16 05:50:41;;;;;;;12.55;6.25;;;11.50;93.60;;;;;;5102054;28;20436;-67
2022/04/16 05:53:10;;;;;;;20.85;10.07;;;11.50;93.70;;;;;;5111284;28;20036;-67
2022/04/16 05:55:38;;;;;;;19.27;8.40;;;11.50;93.60;;;;;;5112954;28;20028;-67
2022/04/16 05:58:04;;;;;;;21.40;9.60;;;11.50;93.70;;;;;;5099714;28;20051;-68
2022/04/16 06:00:30;;;;;;;5.63;2.65;;;11.50;93.70;;;;;;5113606;28;20028;-67
2022/04/16 06:02:56;;;;;;;21.42;11.05;;;11.50;93.90;;;;;;5111841;28;20551;-68
2022/04/16 06:05:22;;;;;;;21.40;10.15;;;11.50;93.80;;;;;;5113419;28;20035;-71
2022/04/16 06:07:49;;;;;;;15.48;7.78;;;11.50;93.70;;;;;;5112928;28;20035;-67
2022/04/16 06:10:15;;;;;;;20.20;8.57;;;11.50;93.70;;;;;;5099953;28;20031;-67
2022/04/16 06:12:41;;;;;;;22.15;9.95;;;11.50;93.70;;;;;;5099364;28;20031;-67
2022/04/16 06:15:07;;;;;;;20.67;9.43;;;11.50;93.60;;;;;;5100033;28;20501;-67
2022/04/16 06:17:34;;;;;;;11.52;5.35;;;11.50;93.50;;;;;;5099221;28;20036;-68
2022/04/16 06:20:04;;;;;;;16.02;7.95;;;11.50;93.60;;;;;;5108600;28;20442;-71
2022/04/16 06:22:30;;;;;;;18.55;8.43;;;11.50;93.50;;;;;;5091154;28;20044;-68
2022/04/16 06:24:55;;;;;;;13.45;6.68;;;11.50;93.60;;;;;;5099302;28;20024;-67
2022/04/16 06:27:22;;;;;;;13.20;5.53;;;11.50;93.50;;;;;;5093644;28;20047;-68
2022/04/16 06:29:48;;;;;;;13.73;5.72;;;11.50;93.50;;;;;;5097546;28;20104;-72
2022/04/16 06:32:14;;;;;;;10.02;5.00;;;11.50;93.60;;;;;;5100592;28;20124;-68
2022/04/16 06:34:40;;;;;;;20.63;5.60;;;11.50;93.70;;;;;;5101338;28;20023;-68
2022/04/16 06:37:06;;;;;;;16.08;6.38;;;11.50;94.00;;;;;;5103344;28;20036;-67
2022/04/16 06:39:31;;;;;;;13.80;6.75;;;11.50;93.50;;;;;;5097878;28;20383;-68
2022/04/16 06:41:57;;;;;;;12.45;7.22;;;11.50;93.40;;;;;;5105849;28;20024;-67
2022/04/16 06:44:23;;;;;;;15.23;7.07;;;11.50;93.40;;;;;;5102965;28;20033;-67
2022/04/16 06:46:50;;;;;;;8.63;5.15;;;11.50;93.30;;;;;;5097438;27;20036;-67
2022/04/16 06:49:16;;;;;;;7.32;3.00;;;11.50;93.40;;;;;;5101838;28;20055;-68
2022/04/16 06:51:42;;;;;;;10.60;4.97;;;11.50;93.60;;;;;;5103384;28;20070;-68
2022/04/16 06:54:08;;;;;;;9.25;3.65;;;11.50;93.60;;;;;;5103033;28;20601;-68
2022/04/16 06:56:34;;;;;;;11.32;5.70;;;11.50;93.60;;;;;;5096634;28;20121;-68
2022/04/16 06:59:00;;;;;;;17.58;7.10;;;11.50;93.40;;;;;;5099653;28;20061;-69
2022/04/16 07:01:26;;;;;;;14.38;4.47;;;11.50;93.30;;;;;;5097984;28;20096;-67
2022/04/16 07:03:52;;;;;;;8.35;3.75;;;11.50;93.40;;;;;;5102096;28;20508;-68
2022/04/16 07:06:18;;;;;;;10.90;5.38;;;11.50;93.50;;;;;;5096360;28;20379;-67
2022/04/16 07:08:47;;;;;;;12.77;5.78;;;11.50;93.30;;;;;;5102857;28;20042;-68
2022/04/16 07:11:12;;;;;;;9.45;4.55;;;11.50;92.90;;;;;;5096567;28;20037;-68
2022/04/16 07:13:38;;;;;;;7.10;3.63;;;11.60;92.80;;;;;;5101116;28;20027;-68
2022/04/16 07:16:04;;;;;;;10.50;4.10;;;11.60;93.00;;;;;;5097882;28;20517;-68
2022/04/16 07:18:29;;;;;;;11.25;3.63;;;11.60;92.90;;;;;;5102528;28;20124;-68
2022/04/16 07:20:56;;;;;;;8.10;2.63;;;11.60;92.80;;;;;;5091722;28;20454;-68
2022/04/16 07:23:21;;;;;;;14.23;4.65;;;11.60;93.30;;;;;;5107135;28;20027;-68
2022/04/16 07:25:47;;;;;;;6.82;3.38;;;11.60;93.10;;;;;;5102961;28;20115;-67
2022/04/16 07:28:21;;;;;;;8.80;3.72;;;11.60;93.00;;;;;;5103333;28;20395;-69
2022/04/16 07:30:52;;;;;;;;;;;11.60;92.60;;;;;;5098885;28;20483;-69
2022/04/16 07:33:18;;;;;;;8.63;4.05;;;11.60;93.10;;;;;;5098415;28;19912;-68
2022/04/16 07:35:44;;;;;;;9.80;3.83;;;11.60;92.80;;;;;;5101284;28;20407;-69
2022/04/16 07:38:10;;;;;;;7.47;3.63;;;11.60;92.80;;;;;;5094285;28;20181;-69
2022/04/16 07:40:37;;;;;;;8.32;4.25;;;11.60;92.90;;;;;;5092716;28;20021;-69
2022/04/16 07:43:03;;;;;;;3.47;1.63;;;11.60;92.70;;;;;;5096205;28;20396;-69
2022/04/16 07:45:29;;;;;;;6.45;3.05;;;11.60;92.80;;;;;;5095708;28;20028;-68
2022/04/16 07:47:55;;;;;;;6.30;3.25;;;11.60;92.90;;;;;;5099239;28;20168;-69
2022/04/16 07:50:20;;;;;;;7.82;2.97;;;11.70;93.20;;;;;;5095090;28;20103;-68
2022/04/16 07:52:47;;;;;;;6.22;3.22;;;11.70;93.20;;;;;;5100284;28;20034;-76
2022/04/16 07:55:14;;;;;;;5.95;3.35;;;11.70;93.00;;;;;;5091008;28;20028;-69
2022/04/16 07:57:40;;;;;;;8.68;3.33;;;11.70;92.90;;;;;;5093975;28;20039;-68
2022/04/16 08:00:07;;;;;;;7.40;3.33;;;11.70;92.60;;;;;;5092816;28;20596;-69
2022/04/16 08:02:37;;;;;;;5.43;2.60;;;11.70;92.20;;;;;;5101923;28;20070;-70
2022/04/16 08:05:03;;;;;;;4.80;2.40;;;11.80;92.40;;;;;;5111731;28;20067;-69
2022/04/16 08:07:30;;;;;;;5.20;2.80;;;11.70;92.40;;;;;;5092576;28;20119;-73
2022/04/16 08:09:55;;;;;;;13.00;2.65;;;11.80;92.50;;;;;;5097531;28;20035;-67
2022/04/16 08:12:21;;;;;;;6.70;3.08;;;11.80;92.40;;;;;;5105905;28;20032;-69
2022/04/16 08:14:47;;;;;;;3.95;1.85;;;11.80;91.90;;;;;;5102331;28;20390;-66
2022/04/16 08:17:13;;;;;;;8.65;2.90;;;11.80;92.40;;;;;;5103266;28;20034;-68
2022/04/16 08:19:38;;;;;;;4.68;2.25;;;11.90;92.70;;;;;;5100450;28;20028;-67
2022/04/16 08:22:07;;;;;;;5.10;2.63;;;11.90;92.40;;;;;;5111013;28;20052;-68
2022/04/16 08:27:03;;;;;;;12.30;2.90;;;11.90;92.00;;;;;;5094712;28;20034;-68
2022/04/16 08:29:28;;;;;;;3.70;2.17;;;11.90;92.30;;;;;;5091790;28;20528;-76
2022/04/16 08:31:54;;;;;;;3.15;1.67;;;11.90;92.00;;;;;;5094324;28;20070;-67
2022/04/16 08:34:20;;;;;;;0.73;0.43;;;11.90;92.10;;;;;;5108367;28;20080;-69
2022/04/16 08:36:45;;;;;;;6.05;2.53;;;12.00;92.50;;;;;;5100488;28;20402;-70
2022/04/16 08:39:11;;;;;;;2.33;1.67;;;12.00;92.00;;;;;;5096440;28;20024;-69
2022/04/16 08:41:39;;;;;;;4.72;2.08;;;12.00;92.40;;;;;;5102119;28;20069;-69
2022/04/16 08:44:05;;;;;;;0.73;0.73;;;12.00;92.30;;;;;;5114814;28;20065;-70
2022/04/16 08:46:32;;;;;;;6.05;2.85;;;12.00;92.60;;;;;;5114439;28;20038;-69
2022/04/16 08:48:59;;;;;;;4.05;1.63;;;12.10;92.40;;;;;;5097442;28;20024;-69
2022/04/16 08:51:28;;;;;;;5.07;2.47;;;12.10;92.60;;;;;;5097008;28;20111;-68
2022/04/16 08:53:55;;;;;;;5.80;3.17;;;12.10;92.40;;;;;;5100696;28;20110;-69
2022/04/16 08:56:21;;;;;;;5.78;2.50;;;12.20;91.90;;;;;;5099732;28;20035;-69
2022/04/16 08:58:46;;;;;;;8.05;2.75;;;12.20;91.80;;;;;;5099122;28;20036;-68
2022/04/16 09:01:12;;;;;;;5.13;1.60;;;12.20;91.30;;;;;;5102369;28;20260;-65
2022/04/16 09:03:40;;;;;;;1.58;1.45;;;12.20;91.90;;;;;;5103325;28;20034;-66
2022/04/16 09:06:06;;;;;;;2.20;1.45;;;12.30;92.40;;;;;;5104138;28;20502;-68
2022/04/16 09:08:34;;;;;;;4.20;1.88;;;12.40;92.60;;;;;;5106424;28;20142;-67
2022/04/16 09:11:29;;;;;;;4.55;1.92;;;12.40;92.30;;;;;;5103973;28;20032;-66
2022/04/16 09:13:55;;;;;;;3.72;1.88;;;12.40;92.50;;;;;;5101327;28;20115;-70
2022/04/16 09:16:22;;;;;;;2.20;1.35;;;12.50;92.70;;;;;;5102468;27;20118;-67
2022/04/16 09:18:55;;;;;;;4.00;1.35;;;12.50;92.60;;;;;;5114496;27;20074;-68
2022/04/16 09:21:25;;;;;;;3.75;2.00;;;12.50;93.00;;;;;;5113877;28;20402;-68
2022/04/16 09:23:56;;;;;;;1.45;0.88;;;12.50;92.80;;;;;;5108901;28;20043;-68
2022/04/16 09:26:34;;;;;;;2.08;1.15;;;12.60;93.20;;;;;;5103092;28;20265;-67
2022/04/16 09:29:09;;;;;;;3.22;1.25;;;12.60;93.10;;;;;;5114157;28;20466;-68
2022/04/16 09:31:38;;;;;;;3.40;1.67;;;12.60;93.10;;;;;;5114288;28;20031;-68
2022/04/16 09:34:05;;;;;;;1.23;0.98;;;12.60;93.30;;;;;;5098793;28;20032;-67
2022/04/16 09:36:31;;;;;;;3.22;1.77;;;12.70;93.30;;;;;;5105644;28;20439;-67
2022/04/16 09:39:04;;;;;;;1.80;1.33;;;12.70;93.40;;;;;;5103038;28;20412;-68
2022/04/16 09:41:34;;;;;;;1.50;1.00;;;12.70;92.90;;;;;;5107763;28;20047;-67
2022/04/16 09:44:01;;;;;;;3.20;1.90;;;12.70;93.10;;;;;;5098531;28;20387;-67
2022/04/16 09:46:28;;;;;;;4.43;2.13;;;12.70;91.90;;;;;;5098809;28;20047;-68
2022/04/16 09:49:02;;;;;;;2.42;1.23;;;12.80;91.60;;;;;;5102695;28;20024;-67
2022/04/16 09:51:36;;;;;;;0.75;0.55;;;12.80;91.90;;;;;;5097023;28;20398;-68
2022/04/16 09:54:05;;;;;;;5.50;1.90;;;12.90;92.70;;;;;;5095359;28;20020;-68
2022/04/16 09:56:38;;;;;;;12.00;2.70;;;12.90;92.30;;;;;;5095854;28;20052;-68
2022/04/16 09:59:06;;;;;;;2.80;1.52;;;12.90;91.80;;;;;;5099987;28;20048;-68
2022/04/16 10:01:32;;;;;;;5.70;1.77;;;12.90;91.90;;;;;;5095078;28;20173;-70
2022/04/16 10:04:00;;;;;;;1.27;0.95;;;13.00;91.60;;;;;;5103947;28;20086;-67
2022/04/16 10:06:30;;;;;;;4.50;2.30;;;13.00;92.50;;;;;;5095011;28;20032;-68
2022/04/16 10:09:01;;;;;;;5.65;2.10;;;13.00;91.80;;;;;;5092263;28;20462;-71
2022/04/16 10:14:53;;;;;;;7.78;3.80;;;13.10;91.90;;;;;;5111041;28;20039;-68
2022/04/16 10:17:42;;;;;;;6.70;2.08;;;13.10;91.20;;;;;;5102672;28;20027;-67
2022/04/16 10:20:16;;;;;;;4.47;2.70;;;13.10;91.50;;;;;;5097544;28;20051;-67
2022/04/16 10:22:51;;;;;;;;;;;13.20;91.40;;;;;;5106848;28;20028;-67
2022/04/16 10:25:39;;;;;;;2.08;1.20;;;13.30;91.80;;;;;;5100818;28;19907;-69
2022/04/16 10:28:10;;;;;;;4.35;2.10;;;13.30;91.90;;;;;;5092340;28;20028;-67
2022/04/16 10:30:41;;;;;;;5.03;2.20;;;13.30;91.50;;;;;;5099480;28;20019;-67
2022/04/16 10:33:21;;;;;;;6.78;2.00;;;13.40;91.30;;;;;;5112907;28;20062;-67
2022/04/16 10:35:52;;;;;;;0.85;0.82;;;13.40;90.90;;;;;;5112739;28;20043;-67
2022/04/16 10:38:22;;;;;;;3.22;1.90;;;13.40;91.90;;;;;;5110518;28;20471;-67
2022/04/16 10:41:02;;;;;;;4.55;1.92;;;13.40;91.20;;;;;;5101317;28;20063;-67
2022/04/16 10:43:32;;;;;;;1.67;1.13;;;13.50;91.60;;;;;;5108636;28;20043;-67
2022/04/16 10:46:09;;;;;;;3.45;1.73;;;13.50;92.20;;;;;;5103517;28;20063;-68
2022/04/16 10:48:38;;;;;;;4.15;2.08;;;13.50;91.00;;;;;;5105775;28;20032;-67
2022/04/16 10:51:05;;;;;;;2.50;0.85;;;13.50;91.10;;;;;;5091590;28;20467;-67
2022/04/16 10:53:36;;;;;;;7.20;2.20;;;13.60;91.50;;;;;;5100222;28;20383;-67
2022/04/16 10:56:11;;;;;;;5.90;3.47;;;13.60;91.10;;;;;;5112350;28;20168;-66
2022/04/16 10:58:42;;;;;;;6.82;3.35;;;13.70;90.60;;;;;;5106566;28;20047;-66
2022/04/16 11:01:10;;;;;;;7.93;3.38;;;13.70;90.50;;;;;;5093024;28;20032;-67
2022/04/16 11:03:45;;;;;;;6.75;2.90;;;13.80;90.10;;;;;;5093813;27;20028;-67
2022/04/16 11:06:10;;;;;;;2.20;1.42;;;13.70;89.10;;;;;;5092559;28;20035;-68
2022/04/16 11:08:41;;;;;;;3.75;2.03;;;13.70;90.70;;;;;;5099202;28;20028;-68
2022/04/16 11:11:08;;;;;;;4.25;2.22;;;13.80;90.70;;;;;;5091911;28;20435;-68
2022/04/16 11:13:36;;;;;;;4.50;2.08;;;13.90;90.40;;;;;;5103800;28;20062;-68
2022/04/16 11:16:02;;;;;;;3.78;0.98;;;13.80;89.80;;;;;;5095646;28;20569;-70
2022/04/16 11:18:47;;;;;;;4.10;1.75;;;13.90;90.90;;;;;;5096196;28;20056;-68
2022/04/16 11:21:20;;;;;;;4.40;2.00;;;14.00;90.40;;;;;;5091956;28;20036;-71
2022/04/16 11:23:48;;;;;;;7.97;2.38;;;14.00;90.00;;;;;;5095159;28;20051;-68
2022/04/16 11:34:34;;;;;;;3.55;1.95;;;14.10;88.80;;;;;;5090914;28;20054;-69
2022/04/16 11:37:00;;;;;;;2.03;1.30;;;14.10;87.50;;;;;;5096320;28;20085;-66
2022/04/16 11:39:27;;;;;;;2.28;1.60;;;14.10;90.20;;;;;;5102655;28;20616;-69
2022/04/16 11:41:53;;;;;;;3.03;1.80;;;14.20;90.10;;;;;;5097867;28;20031;-69
2022/04/16 11:44:50;;;;;;;1.92;1.35;;;14.10;88.60;;;;;;5093152;28;20035;-71
2022/04/16 11:47:22;;;;;;;3.40;1.35;;;14.20;88.60;;;;;;5089893;28;20040;-66
2022/04/16 11:49:59;;;;;;;4.70;1.65;;;14.30;88.80;;;;;;5107129;28;20034;-67
2022/04/16 11:52:26;;;;;;;4.03;1.70;;;14.40;88.00;;;;;;5100515;28;20040;-68
2022/04/16 11:55:02;;;;;;;1.70;1.25;;;14.30;88.10;;;;;;5108579;28;20461;-68
2022/04/16 11:57:27;;;;;;;2.60;1.48;;;14.40;88.30;;;;;;5097766;28;20135;-68
2022/04/16 11:59:58;;;;;;;2.92;1.90;;;14.50;90.00;;;;;;5110012;28;20551;-68
2022/04/16 12:02:30;;;;;;;4.72;2.08;;;14.50;87.10;;;;;;5097229;28;20040;-68
2022/04/16 12:05:09;;;;;;;3.80;2.10;;;14.50;85.60;;;;;;5102884;28;20450;-68
2022/04/16 12:07:35;;;;;;;5.72;2.10;;;14.50;85.30;;;;;;5102390;28;20436;-68
2022/04/16 12:10:03;;;;;;;3.17;1.25;;;14.50;85.00;;;;;;5100495;28;20023;-68
2022/04/16 12:12:29;;;;;;;5.07;2.22;;;14.60;87.80;;;;;;5105932;28;20075;-68
2022/04/16 12:14:55;;;;;;;1.35;1.13;;;14.70;88.70;;;;;;5102868;28;20074;-68
2022/04/16 12:17:30;;;;;;;3.22;1.67;;;14.70;89.90;;;;;;5105259;28;20368;-68
2022/04/16 12:20:06;;;;;;;1.73;0.88;;;14.70;87.80;;;;;;5090944;28;20024;-68
2022/04/16 12:22:50;;;;;;;;;;;14.80;90.00;;;;;;5111359;28;20028;-68
2022/04/16 12:25:21;;;;;;;1.23;0.82;;;14.80;90.50;;;;;;5109695;28;19912;-68
2022/04/16 12:27:54;;;;;;;3.17;1.58;;;14.80;90.30;;;;;;5110765;28;20043;-68
2022/04/16 12:30:24;;;;;;;1.83;1.30;;;14.80;88.90;;;;;;5090331;28;20024;-68
2022/04/16 12:33:11;;;;;;;6.05;1.88;;;14.80;88.70;;;;;;5104200;28;20031;-68
2022/04/16 12:35:41;;;;;;;2.42;1.60;;;14.80;86.80;;;;;;5101074;28;20074;-68
2022/04/16 12:38:10;;;;;;;2.28;0.80;;;14.90;86.80;;;;;;5110341;28;20458;-68
2022/04/16 12:40:36;;;;;;;4.30;1.92;;;14.90;87.20;;;;;;5097866;28;20027;-68
2022/04/16 12:43:02;;;;;;;5.18;1.70;;;14.90;86.00;;;;;;5111113;28;20103;-68
2022/04/16 12:45:32;;;;;;;3.20;1.60;;;15.00;86.30;;;;;;5102688;28;20035;-68
2022/04/16 12:47:58;;;;;;;3.70;1.52;;;15.00;86.00;;;;;;5104190;28;20039;-68
2022/04/16 12:50:26;;;;;;;4.45;1.83;;;15.10;86.30;;;;;;5099443;28;20471;-68
2022/04/16 12:52:52;;;;;;;2.35;1.08;;;15.10;86.40;;;;;;5108377;28;20100;-68
2022/04/16 12:55:18;;;;;;;3.53;1.42;;;15.20;87.10;;;;;;5100244;28;20042;-68
2022/04/16 12:57:47;;;;;;;2.20;1.05;;;15.20;87.60;;;;;;5109053;28;20138;-68
2022/04/16 13:00:14;;;;;;;6.88;1.42;;;15.20;87.10;;;;;;5110962;28;20114;-68
2022/04/16 13:02:43;;;;;;;1.75;0.68;;;15.20;85.00;;;;;;5110655;28;20027;-68
2022/04/16 13:05:10;;;;;;;5.15;1.98;;;15.30;87.20;;;;;;5110438;28;20032;-68
2022/04/16 13:07:44;;;;;;;6.90;2.17;;;15.30;84.50;;;;;;5110988;28;20067;-68
2022/04/16 13:10:11;;;;;;;4.78;1.90;;;15.30;84.70;;;;;;5110542;28;20057;-69